sensor_id;sensor_type;location;lat;lon;timestamp;pressure;altitude;pressure_sealevel;temperature;humidity
56719;BME280;42597;40.636;0.278;2022-11-04T00:01:16;97281.53;;;19.85;74.94
56719;BME280;42597;40.636;0.278;2022-11-04T00:03:42;97286.16;;;19.95;74.60
56719;BME280;42597;40.636;0.278;2022-11-04T00:06:08;97277.69;;;19.79;75.07
56719;BME280;42597;40.636;0.278;2022-11-04T00:08:34;97283.03;;;19.93;74.31
56719;BME280;42597;40.636;0.278;2022-11-04T00:11:00;97271.72;;;19.24;70.94
56719;BME280;42597;40.636;0.278;2022-11-04T00:13:45;97277.03;;;19.53;75.64
56719;BME280;42597;40.636;0.278;2022-11-04T00:16:11;97265.84;;;19.89;73.86
56719;BME280;42597;40.636;0.278;2022-11-04T00:18:55;97267.59;;;19.61;74.00
56719;BME280;42597;40.636;0.278;2022-11-04T00:21:21;97264.63;;;19.90;73.47
56719;BME280;42597;40.636;0.278;2022-11-04T00:24:07;97256.88;;;19.18;76.17
56719;BME280;42597;40.636;0.278;2022-11-04T00:26:52;97253.75;;;19.20;73.15
56719;BME280;42597;40.636;0.278;2022-11-04T00:29:36;97253.28;;;19.29;74.27
56719;BME280;42597;40.636;0.278;2022-11-04T00:32:02;97247.09;;;19.80;73.25
56719;BME280;42597;40.636;0.278;2022-11-04T00:34:47;97249.13;;;19.72;72.82
56719;BME280;42597;40.636;0.278;2022-11-04T00:37:13;97240.00;;;19.31;65.17
56719;BME280;42597;40.636;0.278;2022-11-04T00:39:38;97259.22;;;19.86;72.28
56719;BME280;42597;40.636;0.278;2022-11-04T00:42:04;97258.09;;;19.77;72.22
56719;BME280;42597;40.636;0.278;2022-11-04T00:44:30;97247.19;;;19.69;72.58
56719;BME280;42597;40.636;0.278;2022-11-04T00:46:55;97252.56;;;19.84;71.75
56719;BME280;42597;40.636;0.278;2022-11-04T00:49:21;97245.44;;;19.90;71.46
56719;BME280;42597;40.636;0.278;2022-11-04T00:51:46;97254.44;;;19.94;71.53
56719;BME280;42597;40.636;0.278;2022-11-04T00:54:12;97253.69;;;19.90;71.42
56719;BME280;42597;40.636;0.278;2022-11-04T00:56:38;97255.63;;;19.89;69.34
56719;BME280;42597;40.636;0.278;2022-11-04T00:59:05;97260.34;;;19.89;70.90
56719;BME280;42597;40.636;0.278;2022-11-04T01:01:30;97254.50;;;19.87;70.86
56719;BME280;42597;40.636;0.278;2022-11-04T01:03:56;97256.38;;;19.93;70.30
56719;BME280;42597;40.636;0.278;2022-11-04T01:06:23;97256.06;;;19.88;68.11
56719;BME280;42597;40.636;0.278;2022-11-04T01:08:58;97250.91;;;18.36;71.68
56719;BME280;42597;40.636;0.278;2022-11-04T01:11:25;97245.66;;;19.61;71.04
56719;BME280;42597;40.636;0.278;2022-11-04T01:13:52;97248.69;;;19.78;70.16
56719;BME280;42597;40.636;0.278;2022-11-04T01:16:19;97240.03;;;19.83;69.73
56719;BME280;42597;40.636;0.278;2022-11-04T01:18:44;97238.44;;;19.85;69.48
56719;BME280;42597;40.636;0.278;2022-11-04T01:21:11;97252.00;;;19.51;65.11
56719;BME280;42597;40.636;0.278;2022-11-04T01:23:38;97245.03;;;19.36;71.01
56719;BME280;42597;40.636;0.278;2022-11-04T01:26:08;97232.78;;;19.62;69.54
56719;BME280;42597;40.636;0.278;2022-11-04T01:28:35;97229.63;;;19.63;70.40
56719;BME280;42597;40.636;0.278;2022-11-04T01:31:13;97223.88;;;19.40;62.84
56719;BME280;42597;40.636;0.278;2022-11-04T01:33:39;97224.16;;;16.68;58.55
56719;BME280;42597;40.636;0.278;2022-11-04T01:36:06;97221.84;;;19.51;70.21
56719;BME280;42597;40.636;0.278;2022-11-04T01:38:32;97220.50;;;19.73;69.35
56719;BME280;42597;40.636;0.278;2022-11-04T01:40:58;97209.50;;;19.81;68.69
56719;BME280;42597;40.636;0.278;2022-11-04T01:48:45;97216.72;;;19.53;69.16
56719;BME280;42597;40.636;0.278;2022-11-04T01:51:12;97217.56;;;19.50;68.66
56719;BME280;42597;40.636;0.278;2022-11-04T01:53:39;97198.59;;;19.73;68.92
56719;BME280;42597;40.636;0.278;2022-11-04T01:56:08;97204.09;;;17.98;68.51
56719;BME280;42597;40.636;0.278;2022-11-04T01:58:42;97222.03;;;17.85;65.83
56719;BME280;42597;40.636;0.278;2022-11-04T02:01:11;97210.78;;;19.06;70.24
56719;BME280;42597;40.636;0.278;2022-11-04T02:03:42;97204.25;;;19.45;68.06
56719;BME280;42597;40.636;0.278;2022-11-04T02:06:12;97199.16;;;18.81;70.13
56719;BME280;42597;40.636;0.278;2022-11-04T02:08:39;97204.25;;;19.45;68.61
56719;BME280;42597;40.636;0.278;2022-11-04T02:11:05;97195.88;;;19.11;69.46
56719;BME280;42597;40.636;0.278;2022-11-04T02:13:32;97208.53;;;18.87;67.35
56719;BME280;42597;40.636;0.278;2022-11-04T02:16:28;97208.50;;;18.97;61.83
56719;BME280;42597;40.636;0.278;2022-11-04T02:31:06;97194.88;;;18.80;60.44
56719;BME280;42597;40.636;0.278;2022-11-04T02:36:38;97157.50;;;18.37;67.90
56719;BME280;42597;40.636;0.278;2022-11-04T02:39:19;97173.44;;;18.53;69.53
56719;BME280;42597;40.636;0.278;2022-11-04T02:42:03;97179.78;;;18.32;63.40
56719;BME280;42597;40.636;0.278;2022-11-04T02:44:44;97168.13;;;19.09;67.97
56719;BME280;42597;40.636;0.278;2022-11-04T02:47:17;97154.34;;;19.19;67.53
56719;BME280;42597;40.636;0.278;2022-11-04T02:50:00;97152.41;;;19.20;66.79
56719;BME280;42597;40.636;0.278;2022-11-04T02:52:38;97144.84;;;19.35;67.85
56719;BME280;42597;40.636;0.278;2022-11-04T02:55:20;97169.75;;;17.33;65.27
56719;BME280;42597;40.636;0.278;2022-11-04T02:57:49;97144.84;;;18.68;67.31
56719;BME280;42597;40.636;0.278;2022-11-04T03:00:17;97153.81;;;18.80;67.38
56719;BME280;42597;40.636;0.278;2022-11-04T03:05:14;97151.03;;;18.87;65.06
56719;BME280;42597;40.636;0.278;2022-11-04T03:07:42;97134.19;;;18.92;68.78
56719;BME280;42597;40.636;0.278;2022-11-04T03:10:17;97161.66;;;19.37;66.44
56719;BME280;42597;40.636;0.278;2022-11-04T03:12:57;97155.44;;;18.66;62.60
56719;BME280;42597;40.636;0.278;2022-11-04T03:15:31;97142.88;;;18.80;66.55
56719;BME280;42597;40.636;0.278;2022-11-04T03:20:44;97142.47;;;19.37;67.21
56719;BME280;42597;40.636;0.278;2022-11-04T03:23:10;97144.47;;;18.66;65.14
56719;BME280;42597;40.636;0.278;2022-11-04T03:25:39;97131.88;;;18.87;68.00
56719;BME280;42597;40.636;0.278;2022-11-04T03:30:46;97127.16;;;18.91;66.87
56719;BME280;42597;40.636;0.278;2022-11-04T03:33:41;97121.84;;;18.55;69.05
56719;BME280;42597;40.636;0.278;2022-11-04T03:36:08;97115.34;;;19.01;65.74
56719;BME280;42597;40.636;0.278;2022-11-04T03:38:35;97113.88;;;17.94;64.85
56719;BME280;42597;40.636;0.278;2022-11-04T03:41:03;97110.44;;;18.67;65.65
56719;BME280;42597;40.636;0.278;2022-11-04T03:43:31;97099.00;;;18.90;62.32
56719;BME280;42597;40.636;0.278;2022-11-04T03:45:59;97117.09;;;18.73;65.88
56719;BME280;42597;40.636;0.278;2022-11-04T03:48:25;97120.22;;;18.76;67.23
56719;BME280;42597;40.636;0.278;2022-11-04T03:50:50;97121.72;;;17.32;67.81
56719;BME280;42597;40.636;0.278;2022-11-04T03:53:20;97110.19;;;18.37;68.41
56719;BME280;42597;40.636;0.278;2022-11-04T03:58:58;97115.84;;;17.72;54.11
56719;BME280;42597;40.636;0.278;2022-11-04T04:01:44;97123.34;;;18.78;56.80
56719;BME280;42597;40.636;0.278;2022-11-04T04:04:29;97124.63;;;18.48;65.52
56719;BME280;42597;40.636;0.278;2022-11-04T04:07:19;97119.69;;;18.07;54.99
56719;BME280;42597;40.636;0.278;2022-11-04T04:12:25;97131.47;;;17.90;68.56
56719;BME280;42597;40.636;0.278;2022-11-04T04:15:14;97115.50;;;18.69;67.39
56719;BME280;42597;40.636;0.278;2022-11-04T04:17:49;97107.00;;;18.56;59.55
56719;BME280;42597;40.636;0.278;2022-11-04T04:20:18;97126.59;;;18.44;62.29
56719;BME280;42597;40.636;0.278;2022-11-04T04:22:49;97138.50;;;17.91;56.09
56719;BME280;42597;40.636;0.278;2022-11-04T04:25:17;97124.66;;;19.14;65.57
56719;BME280;42597;40.636;0.278;2022-11-04T04:28:03;97129.69;;;19.19;64.82
56719;BME280;42597;40.636;0.278;2022-11-04T04:30:29;97107.56;;;18.96;64.16
56719;BME280;42597;40.636;0.278;2022-11-04T04:33:09;97132.25;;;17.94;59.55
56719;BME280;42597;40.636;0.278;2022-11-04T04:35:43;97112.97;;;19.10;64.27
56719;BME280;42597;40.636;0.278;2022-11-04T04:41:28;97114.19;;;19.02;64.83
56719;BME280;42597;40.636;0.278;2022-11-04T04:44:22;97093.44;;;19.01;64.34
56719;BME280;42597;40.636;0.278;2022-11-04T04:47:08;97117.13;;;18.66;61.92
56719;BME280;42597;40.636;0.278;2022-11-04T04:49:35;97112.78;;;19.32;63.51
56719;BME280;42597;40.636;0.278;2022-11-04T04:52:02;97097.38;;;16.34;56.58
56719;BME280;42597;40.636;0.278;2022-11-04T04:54:28;97087.47;;;18.54;64.36
56719;BME280;42597;40.636;0.278;2022-11-04T04:56:54;97109.63;;;15.92;53.71
56719;BME280;42597;40.636;0.278;2022-11-04T04:59:19;97099.97;;;18.55;64.54
56719;BME280;42597;40.636;0.278;2022-11-04T05:01:45;97087.88;;;19.15;61.56
56719;BME280;42597;40.636;0.278;2022-11-04T05:04:10;97105.38;;;18.69;62.36
56719;BME280;42597;40.636;0.278;2022-11-04T05:06:36;97112.59;;;18.28;61.60
56719;BME280;42597;40.636;0.278;2022-11-04T05:09:01;97130.53;;;16.50;56.80
56719;BME280;42597;40.636;0.278;2022-11-04T05:11:27;97105.78;;;15.96;52.37
56719;BME280;42597;40.636;0.278;2022-11-04T05:13:53;97094.06;;;17.37;67.21
56719;BME280;42597;40.636;0.278;2022-11-04T05:16:19;97096.41;;;18.62;59.05
56719;BME280;42597;40.636;0.278;2022-11-04T05:18:44;97108.03;;;17.64;55.25
56719;BME280;42597;40.636;0.278;2022-11-04T05:21:12;97098.75;;;18.70;63.82
56719;BME280;42597;40.636;0.278;2022-11-04T05:23:38;97097.03;;;18.17;59.16
56719;BME280;42597;40.636;0.278;2022-11-04T05:26:04;97118.72;;;18.53;64.94
56719;BME280;42597;40.636;0.278;2022-11-04T05:28:30;97103.78;;;18.79;64.21
56719;BME280;42597;40.636;0.278;2022-11-04T05:30:56;97095.56;;;16.88;66.82
56719;BME280;42597;40.636;0.278;2022-11-04T05:33:22;97119.75;;;17.71;60.62
56719;BME280;42597;40.636;0.278;2022-11-04T05:35:47;97096.28;;;18.87;59.99
56719;BME280;42597;40.636;0.278;2022-11-04T05:38:13;97115.84;;;17.83;62.49
56719;BME280;42597;40.636;0.278;2022-11-04T05:40:38;97095.63;;;18.61;61.10
56719;BME280;42597;40.636;0.278;2022-11-04T05:43:04;97106.44;;;18.09;52.01
56719;BME280;42597;40.636;0.278;2022-11-04T05:45:29;97097.91;;;17.64;65.66
56719;BME280;42597;40.636;0.278;2022-11-04T05:47:59;97082.28;;;18.78;63.37
56719;BME280;42597;40.636;0.278;2022-11-04T05:50:26;97099.53;;;15.96;68.50
56719;BME280;42597;40.636;0.278;2022-11-04T05:52:51;97101.03;;;17.52;63.74
56719;BME280;42597;40.636;0.278;2022-11-04T05:55:17;97103.22;;;19.02;59.01
56719;BME280;42597;40.636;0.278;2022-11-04T05:57:42;97111.97;;;17.52;56.36
56719;BME280;42597;40.636;0.278;2022-11-04T06:00:12;97108.84;;;17.46;65.67
56719;BME280;42597;40.636;0.278;2022-11-04T06:02:37;97090.09;;;17.73;63.45
56719;BME280;42597;40.636;0.278;2022-11-04T06:05:03;97133.03;;;17.84;64.86
56719;BME280;42597;40.636;0.278;2022-11-04T06:07:29;97088.94;;;17.82;61.64
56719;BME280;42597;40.636;0.278;2022-11-04T06:09:54;97122.09;;;16.76;50.17
56719;BME280;42597;40.636;0.278;2022-11-04T06:12:20;97135.97;;;18.43;52.70
56719;BME280;42597;40.636;0.278;2022-11-04T06:14:46;97114.88;;;18.40;61.76
56719;BME280;42597;40.636;0.278;2022-11-04T06:17:16;97122.53;;;17.21;60.99
56719;BME280;42597;40.636;0.278;2022-11-04T06:19:42;97149.34;;;15.38;54.15
56719;BME280;42597;40.636;0.278;2022-11-04T06:22:10;97133.69;;;18.27;61.87
56719;BME280;42597;40.636;0.278;2022-11-04T06:24:36;97136.81;;;16.61;50.09
56719;BME280;42597;40.636;0.278;2022-11-04T06:27:02;97134.22;;;17.75;63.59
56719;BME280;42597;40.636;0.278;2022-11-04T06:29:28;97141.63;;;17.11;54.20
56719;BME280;42597;40.636;0.278;2022-11-04T06:31:53;97141.56;;;16.82;61.56
56719;BME280;42597;40.636;0.278;2022-11-04T06:34:19;97168.59;;;16.21;55.62
56719;BME280;42597;40.636;0.278;2022-11-04T06:36:44;97151.63;;;18.39;61.71
56719;BME280;42597;40.636;0.278;2022-11-04T06:39:10;97161.28;;;18.72;58.73
56719;BME280;42597;40.636;0.278;2022-11-04T06:41:35;97168.50;;;15.04;53.62
56719;BME280;42597;40.636;0.278;2022-11-04T06:44:01;97139.47;;;18.54;60.53
56719;BME280;42597;40.636;0.278;2022-11-04T06:46:27;97156.84;;;17.80;56.00
56719;BME280;42597;40.636;0.278;2022-11-04T06:48:55;97170.00;;;14.04;56.52
56719;BME280;42597;40.636;0.278;2022-11-04T06:51:21;97167.34;;;17.06;60.28
56719;BME280;42597;40.636;0.278;2022-11-04T06:53:46;97179.22;;;16.48;51.57
56719;BME280;42597;40.636;0.278;2022-11-04T06:56:12;97163.09;;;17.23;57.31
56719;BME280;42597;40.636;0.278;2022-11-04T06:58:38;97158.69;;;18.33;63.12
56719;BME280;42597;40.636;0.278;2022-11-04T07:01:03;97196.03;;;16.64;49.52
56719;BME280;42597;40.636;0.278;2022-11-04T07:03:29;97160.34;;;17.48;64.38
56719;BME280;42597;40.636;0.278;2022-11-04T07:05:54;97166.94;;;18.18;64.69
56719;BME280;42597;40.636;0.278;2022-11-04T07:08:20;97181.66;;;15.91;57.17
56719;BME280;42597;40.636;0.278;2022-11-04T07:10:46;97181.13;;;15.71;58.34
56719;BME280;42597;40.636;0.278;2022-11-04T07:13:11;97189.25;;;17.92;53.50
56719;BME280;42597;40.636;0.278;2022-11-04T07:15:37;97184.53;;;18.17;65.26
56719;BME280;42597;40.636;0.278;2022-11-04T07:18:04;97186.03;;;15.54;53.30
56719;BME280;42597;40.636;0.278;2022-11-04T07:20:32;97165.63;;;18.59;63.86
56719;BME280;42597;40.636;0.278;2022-11-04T07:22:58;97192.34;;;17.40;48.95
56719;BME280;42597;40.636;0.278;2022-11-04T07:25:23;97196.59;;;17.06;68.86
56719;BME280;42597;40.636;0.278;2022-11-04T07:27:49;97265.69;;;14.47;56.75
56719;BME280;42597;40.636;0.278;2022-11-04T07:30:14;97168.97;;;17.75;64.83
56719;BME280;42597;40.636;0.278;2022-11-04T07:32:40;97169.63;;;18.33;64.75
56719;BME280;42597;40.636;0.278;2022-11-04T07:35:06;97191.19;;;17.38;50.69
56719;BME280;42597;40.636;0.278;2022-11-04T07:37:31;97203.41;;;15.36;53.86
56719;BME280;42597;40.636;0.278;2022-11-04T07:39:57;97189.63;;;17.51;62.04
56719;BME280;42597;40.636;0.278;2022-11-04T07:42:22;97196.53;;;16.04;57.04
56719;BME280;42597;40.636;0.278;2022-11-04T07:44:48;97236.69;;;14.85;53.99
56719;BME280;42597;40.636;0.278;2022-11-04T07:47:13;97192.88;;;16.51;50.69
56719;BME280;42597;40.636;0.278;2022-11-04T07:49:39;97214.44;;;16.01;58.58
56719;BME280;42597;40.636;0.278;2022-11-04T07:52:04;97200.94;;;17.67;64.42
56719;BME280;42597;40.636;0.278;2022-11-04T07:54:30;97232.75;;;16.74;48.97
56719;BME280;42597;40.636;0.278;2022-11-04T07:56:56;97183.72;;;17.02;63.23
56719;BME280;42597;40.636;0.278;2022-11-04T07:59:22;97236.75;;;16.98;50.45
56719;BME280;42597;40.636;0.278;2022-11-04T08:01:47;97211.13;;;17.99;64.67
56719;BME280;42597;40.636;0.278;2022-11-04T08:04:13;97229.84;;;18.22;58.19
56719;BME280;42597;40.636;0.278;2022-11-04T08:06:38;97264.50;;;16.38;51.59
56719;BME280;42597;40.636;0.278;2022-11-04T08:09:04;97234.13;;;16.43;49.96
56719;BME280;42597;40.636;0.278;2022-11-04T08:11:29;97266.88;;;17.30;61.86
56719;BME280;42597;40.636;0.278;2022-11-04T08:13:55;97243.81;;;17.13;62.29
56719;BME280;42597;40.636;0.278;2022-11-04T08:16:23;97239.84;;;18.68;62.05
56719;BME280;42597;40.636;0.278;2022-11-04T08:18:50;97233.31;;;17.22;58.46
56719;BME280;42597;40.636;0.278;2022-11-04T08:21:17;97229.75;;;18.50;61.92
56719;BME280;42597;40.636;0.278;2022-11-04T08:23:43;97216.50;;;18.45;62.68
56719;BME280;42597;40.636;0.278;2022-11-04T08:26:15;97253.63;;;17.64;61.36
56719;BME280;42597;40.636;0.278;2022-11-04T08:28:41;97222.91;;;14.70;52.17
56719;BME280;42597;40.636;0.278;2022-11-04T08:31:12;97215.03;;;17.98;64.60
56719;BME280;42597;40.636;0.278;2022-11-04T08:33:38;97233.69;;;18.42;61.23
56719;BME280;42597;40.636;0.278;2022-11-04T08:36:13;97216.56;;;17.70;46.89
56719;BME280;42597;40.636;0.278;2022-11-04T08:38:39;97222.06;;;16.44;47.92
56719;BME280;42597;40.636;0.278;2022-11-04T08:41:06;97225.97;;;17.98;55.99
56719;BME280;42597;40.636;0.278;2022-11-04T08:43:32;97209.16;;;17.96;65.13
56719;BME280;42597;40.636;0.278;2022-11-04T08:45:59;97172.63;;;15.79;53.59
56719;BME280;42597;40.636;0.278;2022-11-04T08:48:25;97203.31;;;17.58;59.65
56719;BME280;42597;40.636;0.278;2022-11-04T08:50:53;97191.59;;;17.61;62.17
56719;BME280;42597;40.636;0.278;2022-11-04T08:53:19;97186.91;;;17.65;55.04
56719;BME280;42597;40.636;0.278;2022-11-04T08:55:44;97196.94;;;16.86;44.05
56719;BME280;42597;40.636;0.278;2022-11-04T08:58:10;97182.00;;;18.69;62.93
56719;BME280;42597;40.636;0.278;2022-11-04T09:00:36;97168.97;;;18.98;62.49
56719;BME280;42597;40.636;0.278;2022-11-04T09:03:02;97165.72;;;18.34;48.79
56719;BME280;42597;40.636;0.278;2022-11-04T09:05:29;97169.56;;;15.92;42.52
56719;BME280;42597;40.636;0.278;2022-11-04T09:07:55;97174.44;;;17.82;66.25
56719;BME280;42597;40.636;0.278;2022-11-04T09:10:21;97183.94;;;18.72;63.81
56719;BME280;42597;40.636;0.278;2022-11-04T09:12:46;97173.63;;;17.46;63.37
56719;BME280;42597;40.636;0.278;2022-11-04T09:15:12;97189.09;;;18.53;54.51
56719;BME280;42597;40.636;0.278;2022-11-04T09:17:38;97181.69;;;15.98;42.04
56719;BME280;42597;40.636;0.278;2022-11-04T09:20:05;97186.56;;;16.29;42.17
56719;BME280;42597;40.636;0.278;2022-11-04T09:22:30;97205.50;;;16.81;47.27
56719;BME280;42597;40.636;0.278;2022-11-04T09:24:56;97182.59;;;17.28;53.83
56719;BME280;42597;40.636;0.278;2022-11-04T09:27:22;97157.88;;;18.36;60.23
56719;BME280;42597;40.636;0.278;2022-11-04T09:29:48;97183.59;;;18.56;61.70
56719;BME280;42597;40.636;0.278;2022-11-04T09:32:13;97160.38;;;17.73;58.53
56719;BME280;42597;40.636;0.278;2022-11-04T09:34:39;97203.13;;;16.72;42.63
56719;BME280;42597;40.636;0.278;2022-11-04T09:37:04;97174.16;;;18.79;61.65
56719;BME280;42597;40.636;0.278;2022-11-04T09:39:30;97174.31;;;18.32;51.06
56719;BME280;42597;40.636;0.278;2022-11-04T09:44:48;97157.09;;;18.39;62.05
56719;BME280;42597;40.636;0.278;2022-11-04T09:47:15;97168.19;;;17.82;60.20
56719;BME280;42597;40.636;0.278;2022-11-04T09:49:43;97163.44;;;18.18;59.18
56719;BME280;42597;40.636;0.278;2022-11-04T09:52:35;97167.41;;;17.78;55.53
56719;BME280;42597;40.636;0.278;2022-11-04T09:57:41;97146.16;;;18.39;58.82
56719;BME280;42597;40.636;0.278;2022-11-04T10:00:13;97151.66;;;18.24;50.73
56719;BME280;42597;40.636;0.278;2022-11-04T10:10:58;97123.38;;;18.70;52.35
56719;BME280;42597;40.636;0.278;2022-11-04T10:16:33;97130.59;;;18.21;51.95
56719;BME280;42597;40.636;0.278;2022-11-04T10:19:10;97103.06;;;18.61;57.75
56719;BME280;42597;40.636;0.278;2022-11-04T10:21:52;97108.81;;;18.84;58.62
56719;BME280;42597;40.636;0.278;2022-11-04T10:27:20;97126.63;;;18.37;49.70
56719;BME280;42597;40.636;0.278;2022-11-04T10:29:52;97110.19;;;18.40;49.30
56719;BME280;42597;40.636;0.278;2022-11-04T10:32:43;97079.59;;;18.70;54.95
56719;BME280;42597;40.636;0.278;2022-11-04T10:37:37;97101.94;;;18.55;47.86
56719;BME280;42597;40.636;0.278;2022-11-04T10:40:23;97123.66;;;17.92;45.10
56719;BME280;42597;40.636;0.278;2022-11-04T10:42:50;97117.25;;;18.34;58.02
56719;BME280;42597;40.636;0.278;2022-11-04T10:45:19;97116.84;;;18.43;53.28
56719;BME280;42597;40.636;0.278;2022-11-04T10:48:05;97104.50;;;18.87;56.66
56719;BME280;42597;40.636;0.278;2022-11-04T10:50:40;97154.78;;;18.34;46.92
56719;BME280;42597;40.636;0.278;2022-11-04T10:53:12;97091.28;;;18.67;55.08
56719;BME280;42597;40.636;0.278;2022-11-04T10:56:03;97138.25;;;18.62;47.73
56719;BME280;42597;40.636;0.278;2022-11-04T10:58:35;97166.59;;;17.73;42.49
56719;BME280;42597;40.636;0.278;2022-11-04T11:01:26;97161.69;;;18.70;53.91
56719;BME280;42597;40.636;0.278;2022-11-04T11:03:53;97156.78;;;19.07;58.42
56719;BME280;42597;40.636;0.278;2022-11-04T11:06:33;97152.28;;;18.64;50.73
56719;BME280;42597;40.636;0.278;2022-11-04T11:09:17;97095.16;;;18.77;53.09
56719;BME280;42597;40.636;0.278;2022-11-04T11:11:48;97106.16;;;18.73;43.08
56719;BME280;42597;40.636;0.278;2022-11-04T11:14:17;97133.34;;;18.14;48.03
56719;BME280;42597;40.636;0.278;2022-11-04T11:16:43;97138.38;;;18.30;47.30
56719;BME280;42597;40.636;0.278;2022-11-04T11:19:18;97137.94;;;18.46;48.00
56719;BME280;42597;40.636;0.278;2022-11-04T11:21:49;97132.38;;;18.64;57.65
56719;BME280;42597;40.636;0.278;2022-11-04T11:24:19;97079.91;;;18.80;56.84
56719;BME280;42597;40.636;0.278;2022-11-04T11:26:46;97151.66;;;18.32;49.63
56719;BME280;42597;40.636;0.278;2022-11-04T11:29:40;97123.13;;;18.33;44.72
56719;BME280;42597;40.636;0.278;2022-11-04T11:32:29;97116.50;;;18.34;44.01
56719;BME280;42597;40.636;0.278;2022-11-04T11:34:56;97131.16;;;18.68;43.02
56719;BME280;42597;40.636;0.278;2022-11-04T11:37:27;97058.09;;;19.17;55.03
56719;BME280;42597;40.636;0.278;2022-11-04T11:39:57;97102.59;;;18.80;45.33
56719;BME280;42597;40.636;0.278;2022-11-04T11:42:23;97142.56;;;18.56;50.48
56719;BME280;42597;40.636;0.278;2022-11-04T11:52:47;97121.19;;;18.33;44.83
56719;BME280;42597;40.636;0.278;2022-11-04T11:58:11;97116.28;;;18.80;56.06
56719;BME280;42597;40.636;0.278;2022-11-04T12:00:51;97114.84;;;18.54;54.95
56719;BME280;42597;40.636;0.278;2022-11-04T12:03:29;97116.50;;;18.30;43.07
56719;BME280;42597;40.636;0.278;2022-11-04T12:06:42;97130.25;;;18.96;50.01
56719;BME280;42597;40.636;0.278;2022-11-04T12:09:45;97147.88;;;17.83;39.15
56719;BME280;42597;40.636;0.278;2022-11-04T12:20:31;97062.13;;;18.43;42.54
56719;BME280;42597;40.636;0.278;2022-11-04T12:23:23;97107.75;;;18.57;45.87
56719;BME280;42597;40.636;0.278;2022-11-04T12:34:33;97064.31;;;19.21;56.04
56719;BME280;42597;40.636;0.278;2022-11-04T12:43:34;97095.22;;;18.73;43.99
56719;BME280;42597;40.636;0.278;2022-11-04T12:52:15;97135.88;;;18.71;45.14
56719;BME280;42597;40.636;0.278;2022-11-04T13:00:07;97115.19;;;18.56;48.00
56719;BME280;42597;40.636;0.278;2022-11-04T13:02:39;97091.94;;;18.93;44.32
56719;BME280;42597;40.636;0.278;2022-11-04T13:10:42;97108.44;;;18.86;55.29
56719;BME280;42597;40.636;0.278;2022-11-04T13:13:11;97127.00;;;18.39;40.64
56719;BME280;42597;40.636;0.278;2022-11-04T13:15:48;97156.78;;;18.15;42.00
56719;BME280;42597;40.636;0.278;2022-11-04T13:18:18;97124.38;;;18.17;51.85
56719;BME280;42597;40.636;0.278;2022-11-04T13:21:12;96980.88;;;18.92;56.00
56719;BME280;42597;40.636;0.278;2022-11-04T13:23:48;97098.63;;;19.40;56.25
56719;BME280;42597;40.636;0.278;2022-11-04T13:26:16;97112.56;;;19.57;55.93
56719;BME280;42597;40.636;0.278;2022-11-04T13:28:44;97109.06;;;19.04;48.73
56719;BME280;42597;40.636;0.278;2022-11-04T13:31:23;97123.41;;;18.56;53.00
56719;BME280;42597;40.636;0.278;2022-11-04T13:37:10;97078.81;;;19.70;57.56
56719;BME280;42597;40.636;0.278;2022-11-04T13:40:02;97093.06;;;19.47;55.45
56719;BME280;42597;40.636;0.278;2022-11-04T13:45:51;97083.09;;;19.27;44.77
56719;BME280;42597;40.636;0.278;2022-11-04T13:48:21;97110.25;;;18.26;42.34
56719;BME280;42597;40.636;0.278;2022-11-04T13:50:53;97028.75;;;19.63;56.39
56719;BME280;42597;40.636;0.278;2022-11-04T13:53:20;97041.69;;;19.96;54.63
56719;BME280;42597;40.636;0.278;2022-11-04T13:56:03;97044.53;;;19.48;47.49
56719;BME280;42597;40.636;0.278;2022-11-04T13:58:29;97091.41;;;18.46;50.84
56719;BME280;42597;40.636;0.278;2022-11-04T14:01:25;97109.69;;;19.75;56.92
56719;BME280;42597;40.636;0.278;2022-11-04T14:04:02;97082.28;;;20.09;56.28
56719;BME280;42597;40.636;0.278;2022-11-04T14:07:01;97081.59;;;19.18;45.44
56719;BME280;42597;40.636;0.278;2022-11-04T14:15:08;97097.50;;;19.34;47.10
56719;BME280;42597;40.636;0.278;2022-11-04T14:22:50;97135.38;;;18.91;43.54
56719;BME280;42597;40.636;0.278;2022-11-04T14:27:49;97118.97;;;19.43;55.49
56719;BME280;42597;40.636;0.278;2022-11-04T14:32:55;97128.25;;;19.04;46.53
56719;BME280;42597;40.636;0.278;2022-11-04T14:35:23;97151.78;;;19.50;56.69
56719;BME280;42597;40.636;0.278;2022-11-04T14:37:53;97150.66;;;18.85;43.09
56719;BME280;42597;40.636;0.278;2022-11-04T14:40:28;97145.13;;;19.51;45.81
56719;BME280;42597;40.636;0.278;2022-11-04T14:43:20;97172.06;;;17.88;52.90
56719;BME280;42597;40.636;0.278;2022-11-04T14:45:50;97158.22;;;19.26;48.76
56719;BME280;42597;40.636;0.278;2022-11-04T14:48:17;97149.22;;;19.77;55.63
56719;BME280;42597;40.636;0.278;2022-11-04T14:50:49;97171.59;;;19.16;56.89
56719;BME280;42597;40.636;0.278;2022-11-04T14:53:22;97159.34;;;19.32;52.07
56719;BME280;42597;40.636;0.278;2022-11-04T14:56:02;97134.97;;;19.48;55.81
56719;BME280;42597;40.636;0.278;2022-11-04T14:58:28;97190.59;;;18.79;41.07
56719;BME280;42597;40.636;0.278;2022-11-04T15:01:00;97153.06;;;19.87;55.03
56719;BME280;42597;40.636;0.278;2022-11-04T15:03:31;97204.72;;;18.56;53.26
56719;BME280;42597;40.636;0.278;2022-11-04T15:06:00;97184.97;;;19.59;52.25
56719;BME280;42597;40.636;0.278;2022-11-04T15:11:23;97173.75;;;20.29;57.03
56719;BME280;42597;40.636;0.278;2022-11-04T15:14:16;97158.59;;;20.17;49.61
56719;BME280;42597;40.636;0.278;2022-11-04T15:16:46;97191.88;;;18.42;57.89
56719;BME280;42597;40.636;0.278;2022-11-04T15:19:27;97190.47;;;19.00;42.84
56719;BME280;42597;40.636;0.278;2022-11-04T15:21:54;97219.72;;;17.76;41.66
56719;BME280;42597;40.636;0.278;2022-11-04T15:24:20;97232.94;;;18.28;40.60
56719;BME280;42597;40.636;0.278;2022-11-04T15:26:51;97182.03;;;19.36;41.31
56719;BME280;42597;40.636;0.278;2022-11-04T15:29:20;97167.75;;;19.62;55.86
56719;BME280;42597;40.636;0.278;2022-11-04T15:31:58;97182.81;;;18.63;41.64
56719;BME280;42597;40.636;0.278;2022-11-04T15:34:25;97195.81;;;18.37;41.68